Preview of NWS' New Version of Forecast
This preview is not operational and should not be used for support decisions.

Terminal Aerodrome Forecast (TAF)

Issued by National Weather Service (NWS)

                            
530 
FTUS42 KMFL 240543
TAFMIA
TAF
KMIA 240543Z 2406/2512 09010KT P6SM VCSH SCT025 BKN050
     FM241400 11015KT P6SM FEW025 SCT050
     FM250000 11010KT P6SM SCT025 BKN050=